Hovedside
METAR-TAF:

METAR-TAF

Lufthavner :

Evenes, Norge

Harstad/Narvik lufthavn

breddegrad: 68-31N, lengdegrad: 016-41E, høyde over havet: 26 m

Gjeldene værobservasjon

Denne rapporten ble laget for 21 minutter siden, klokken 19:50 UTC
Vind 11 kt fra Nord
Temperatur 5°C
Luftfuktighet 75%
Trykk 1012 hPa
Sikt 10 km eller mer
Brutte skyer i en høyde av 2900 ft

METAR: ENEV 281950Z 36011KT 9999 BKN029 05/01 Q1012 RMK WIND 1400FT 35018KT

Tid: 22:11 (20:11 UTC)

Varsel

Denne rapporten ble laget for 3 timer og 11 minutter siden, klokken 17:00 UTC
Varsel gyldig fra 28. klokken 18 UTC til 28. klokken 21 UTC
Vind 12 kt fra Nord
Sikt 10 km eller mer
Spredte skyer i en høyde av 1500 ft
Brutte skyer i en høyde av 3000 ft

TAF: ENEV 281700Z 2818/2821 35012KT 9999 SCT015 BKN030

Værobservasjoner og værvarsel for over 4000 flyplasser (METAR- og TAF-rapporter).

Tilgjengelige stasjoner er representert av de røde og gule prikkene på kartet.

Hold musepekeren over prikken for å se navnet på stasjonen.

Klikk så for å se værobservasjoner og -varsler.

For å forandre kartet kan du klikke på den grønne knappen med svart kryss for å zoome inn, på den grønne knappen med strek for å zoome ut, eller på de grønne pilene for å se tilstøtende kart.


METAR-TAF: